Time;durP1;ratioP1;P1;durP2;ratioP2;P2;SDS_P1;SDS_P2;PMS_P1;PMS_P2;Temp;Humidity;BMP_temperature;BMP_pressure;BME280_temperature;BME280_humidity;BME280_pressure;Samples;Min_cycle;Max_cycle;Signal;HPM_P1;HPM_P2
2023/07/17 00:00:15;;;;;;;1.60;0.70;;;;;;;37.31;20.34;100635.97;4947495;28;20082;-78
2023/07/17 00:02:44;;;;;;;1.27;0.60;;;;;;;37.30;19.60;100628.88;4949010;28;20050;-81
2023/07/17 00:05:13;;;;;;;2.63;0.70;;;;;;;37.29;19.86;100627.16;4948123;28;20047;-77
2023/07/17 00:07:42;;;;;;;0.80;0.60;;;;;;;37.31;20.35;100618.94;4951349;28;20391;-75
2023/07/17 00:10:14;;;;;;;1.23;1.13;;;;;;;37.36;19.42;100626.63;4946829;28;20413;-77
2023/07/17 00:12:43;;;;;;;2.85;0.63;;;;;;;37.19;20.01;100631.63;4942648;28;20047;-74
2023/07/17 00:15:13;;;;;;;1.38;0.70;;;;;;;37.03;20.10;100625.78;4954378;28;20051;-75
2023/07/17 00:17:42;;;;;;;1.70;0.80;;;;;;;36.92;20.44;100617.75;4949493;28;20061;-77
2023/07/17 00:20:13;;;;;;;4.20;0.75;;;;;;;36.96;20.24;100624.59;4949151;28;20066;-76
2023/07/17 00:22:42;;;;;;;1.15;0.60;;;;;;;36.97;20.33;100615.50;4942291;28;20040;-79
2023/07/17 00:25:11;;;;;;;0.93;0.40;;;;;;;37.01;20.02;100620.50;4948013;28;20497;-76
2023/07/17 00:27:39;;;;;;;0.75;0.50;;;;;;;36.96;20.08;100613.81;4955958;28;20055;-77
2023/07/17 00:30:09;;;;;;;1.63;0.40;;;;;;;36.87;20.05;100607.34;4955816;28;20046;-82
2023/07/17 00:32:39;;;;;;;1.02;0.50;;;;;;;36.79;20.42;100608.00;4955621;28;20055;-80
2023/07/17 00:35:09;;;;;;;1.27;0.40;;;;;;;36.59;20.83;100608.78;4950760;28;20481;-79
2023/07/17 00:37:38;;;;;;;1.60;0.50;;;;;;;36.47;20.79;100614.16;4953365;28;20079;-77
2023/07/17 00:40:08;;;;;;;2.70;0.40;;;;;;;36.42;20.93;100611.00;4955259;28;20051;-78
2023/07/17 00:42:38;;;;;;;4.25;0.60;;;;;;;36.27;21.13;100621.19;4953353;28;20040;-82
2023/07/17 00:45:08;;;;;;;0.65;0.43;;;;;;;36.17;21.33;100616.66;4951264;28;20047;-82
2023/07/17 00:47:38;;;;;;;0.57;0.30;;;;;;;36.12;21.33;100616.16;4955854;28;20047;-81
2023/07/17 00:50:08;;;;;;;0.82;0.35;;;;;;;36.07;21.37;100617.34;4951697;28;20421;-79
2023/07/17 00:52:37;;;;;;;2.58;0.40;;;;;;;36.00;21.26;100615.28;4960272;28;20047;-81
2023/07/17 00:55:10;;;;;;;1.17;0.40;;;;;;;35.96;21.51;100609.28;4945143;28;20051;-79
2023/07/17 00:57:39;;;;;;;1.38;0.40;;;;;;;35.99;21.67;100608.19;4947873;28;20044;-84
2023/07/17 01:00:10;;;;;;;2.20;0.60;;;;;;;35.97;21.61;100602.94;4949357;28;20053;-76
2023/07/17 01:02:42;;;;;;;4.55;0.63;;;;;;;35.55;22.31;100621.47;4944420;28;20470;-78
2023/07/17 01:05:10;;;;;;;;;;;;;;;35.57;21.75;100614.09;4953397;28;20055;-81
2023/07/17 01:07:39;;;;;;;0.65;0.65;;;;;;;35.62;20.98;100603.88;4949054;28;20013;-81
2023/07/17 01:10:09;;;;;;;3.38;0.50;;;;;;;35.65;21.03;100617.09;4945837;28;20142;-82
2023/07/17 01:12:38;;;;;;;2.17;0.60;;;;;;;35.65;20.98;100603.63;4943863;28;20046;-81
2023/07/17 01:15:08;;;;;;;2.53;0.70;;;;;;;35.71;21.62;100615.75;4948328;28;20094;-83
2023/07/17 01:17:36;;;;;;;2.13;0.55;;;;;;;35.76;21.39;100610.00;4948132;28;20047;-81
2023/07/17 01:20:09;;;;;;;0.82;0.50;;;;;;;35.81;21.78;100615.91;4946252;28;20055;-81
2023/07/17 01:22:41;;;;;;;1.13;0.50;;;;;;;35.83;21.60;100613.94;4951592;28;20127;-81
2023/07/17 01:25:12;;;;;;;1.70;0.40;;;;;;;35.84;21.25;100612.97;4951016;28;20055;-78
2023/07/17 01:27:40;;;;;;;4.77;0.60;;;;;;;35.82;21.55;100615.75;4949612;28;20047;-79
2023/07/17 01:30:10;;;;;;;5.47;0.40;;;;;;;35.81;21.43;100621.28;4948559;28;20047;-81
2023/07/17 01:32:39;;;;;;;3.63;0.40;;;;;;;35.75;22.04;100621.75;4956750;28;20490;-80
2023/07/17 01:35:08;;;;;;;1.50;0.30;;;;;;;35.69;22.06;100624.91;4951653;28;20051;-80
2023/07/17 01:37:37;;;;;;;0.68;0.30;;;;;;;35.61;22.55;100630.88;4950697;28;20043;-80
2023/07/17 01:40:07;;;;;;;0.80;0.45;;;;;;;35.54;22.67;100630.50;4949311;28;20051;-77
2023/07/17 01:42:37;;;;;;;0.40;0.40;;;;;;;35.48;23.02;100632.81;4943121;28;20580;-78
2023/07/17 01:45:07;;;;;;;0.80;0.40;;;;;;;35.39;23.21;100632.56;4951396;28;20711;-84
2023/07/17 01:47:36;;;;;;;2.05;0.50;;;;;;;35.31;23.10;100628.72;4949989;28;20055;-79
2023/07/17 01:50:05;;;;;;;4.13;0.50;;;;;;;35.26;22.87;100637.16;4949315;28;20127;-84
2023/07/17 01:52:32;;;;;;;0.63;0.40;;;;;;;35.18;23.23;100637.72;4947725;28;20054;-82
2023/07/17 01:55:01;;;;;;;1.17;0.43;;;;;;;35.10;23.17;100637.44;4948576;28;20138;-83
2023/07/17 01:57:29;;;;;;;1.30;0.40;;;;;;;35.03;23.76;100634.34;4942424;28;20503;-78
2023/07/17 02:00:02;;;;;;;0.50;0.40;;;;;;;34.95;23.57;100643.94;4948333;28;20453;-84
2023/07/17 02:02:30;;;;;;;1.55;0.60;;;;;;;34.83;23.28;100645.72;4946889;28;20055;-78
2023/07/17 02:04:59;;;;;;;1.23;0.57;;;;;;;34.72;23.40;100646.50;4946269;28;20428;-78
2023/07/17 02:07:28;;;;;;;0.70;0.60;;;;;;;34.61;24.04;100641.06;4947085;28;20102;-80
2023/07/17 02:09:56;;;;;;;4.32;0.90;;;;;;;34.57;24.56;100644.94;4945274;28;20053;-83
2023/07/17 02:12:25;;;;;;;1.92;0.50;;;;;;;34.50;24.59;100649.91;4950261;28;20111;-81
2023/07/17 02:14:54;;;;;;;1.70;0.68;;;;;;;34.39;24.71;100653.34;4947838;28;20145;-79
2023/07/17 02:17:24;;;;;;;2.67;0.60;;;;;;;34.30;24.42;100659.41;4946787;28;20063;-79
2023/07/17 02:19:53;;;;;;;2.57;0.47;;;;;;;34.17;25.41;100663.91;4947568;28;20493;-78
2023/07/17 02:22:21;;;;;;;0.80;0.43;;;;;;;34.03;25.82;100669.38;4942181;28;20061;-84
2023/07/17 02:24:52;;;;;;;1.63;0.50;;;;;;;33.92;25.54;100670.13;4947330;28;20521;-84
2023/07/17 02:27:22;;;;;;;1.27;0.38;;;;;;;33.79;25.92;100670.16;4942320;28;20082;-84
2023/07/17 02:29:50;;;;;;;0.80;0.57;;;;;;;33.63;26.29;100674.81;4943938;28;20082;-83
2023/07/17 02:32:19;;;;;;;2.50;0.60;;;;;;;33.46;26.35;100678.63;4949471;28;20043;-78
2023/07/17 02:34:49;;;;;;;1.38;0.50;;;;;;;33.28;26.87;100680.72;4947385;28;20055;-79
2023/07/17 02:37:21;;;;;;;1.30;0.50;;;;;;;33.10;26.69;100693.53;4944341;28;20898;-84
2023/07/17 02:39:49;;;;;;;0.90;0.60;;;;;;;32.85;26.44;100695.13;4946844;28;20047;-82
2023/07/17 02:42:18;;;;;;;1.75;0.60;;;;;;;32.68;27.20;100692.66;4944507;28;20074;-79
2023/07/17 02:44:47;;;;;;;1.35;0.93;;;;;;;32.52;27.45;100703.50;4948623;28;20078;-81
2023/07/17 02:47:18;;;;;;;0.82;0.73;;;;;;;32.35;27.54;100702.72;4943875;28;20788;-84
2023/07/17 02:49:48;;;;;;;;;;;;;;;32.28;27.72;100697.84;4946820;28;20508;-83
2023/07/17 02:52:16;;;;;;;4.82;0.75;;;;;;;32.18;28.08;100704.72;4942314;28;19935;-80
2023/07/17 02:54:45;;;;;;;1.48;0.68;;;;;;;32.03;28.41;100704.72;4947710;28;20062;-83
2023/07/17 02:57:15;;;;;;;3.72;0.75;;;;;;;31.88;28.70;100709.13;4944228;28;20055;-82
2023/07/17 02:59:43;;;;;;;2.95;0.63;;;;;;;31.68;28.42;100702.34;4945836;28;20537;-81
2023/07/17 03:02:12;;;;;;;1.75;0.60;;;;;;;31.58;28.24;100716.34;4942794;28;20066;-81
2023/07/17 03:04:41;;;;;;;1.98;0.60;;;;;;;31.38;28.48;100712.13;4940564;28;20047;-80
2023/07/17 03:07:11;;;;;;;1.30;0.60;;;;;;;31.21;28.93;100723.78;4943721;28;20055;-82
2023/07/17 03:09:39;;;;;;;1.10;0.55;;;;;;;31.02;28.87;100714.16;4941446;28;20050;-83
2023/07/17 03:12:09;;;;;;;2.80;0.50;;;;;;;30.87;29.00;100713.19;4938888;28;20063;-79
2023/07/17 03:14:38;;;;;;;2.05;0.70;;;;;;;30.74;29.06;100724.63;4944834;28;20115;-81
2023/07/17 03:17:06;;;;;;;1.38;0.50;;;;;;;30.63;29.36;100728.75;4944030;28;20055;-82
2023/07/17 03:19:35;;;;;;;1.83;0.60;;;;;;;30.39;29.74;100733.59;4948064;28;20055;-79
2023/07/17 03:22:04;;;;;;;0.93;0.50;;;;;;;30.19;29.81;100734.66;4941013;28;20803;-82
2023/07/17 03:24:35;;;;;;;3.92;0.68;;;;;;;30.03;30.20;100739.03;4949245;28;20058;-78
2023/07/17 03:27:03;;;;;;;0.85;0.43;;;;;;;29.84;29.98;100729.31;4945762;28;20059;-81
2023/07/17 03:29:32;;;;;;;1.45;0.40;;;;;;;29.63;30.30;100736.59;4938122;28;20056;-80
2023/07/17 03:32:01;;;;;;;1.45;0.50;;;;;;;29.50;30.85;100735.47;4940234;28;20048;-82
2023/07/17 03:34:29;;;;;;;4.63;0.50;;;;;;;29.43;31.17;100747.38;4943725;28;20047;-78
2023/07/17 03:36:58;;;;;;;1.58;0.52;;;;;;;29.29;31.23;100747.22;4943745;28;20437;-82
2023/07/17 03:39:26;;;;;;;1.83;0.60;;;;;;;29.17;32.33;100756.66;4943548;28;20162;-82
2023/07/17 03:41:57;;;;;;;1.73;0.50;;;;;;;28.97;32.00;100758.44;4944732;28;20055;-82
2023/07/17 03:44:27;;;;;;;1.40;0.50;;;;;;;28.77;32.14;100761.16;4947903;28;20051;-81
2023/07/17 03:46:55;;;;;;;1.15;0.47;;;;;;;28.59;32.94;100768.22;4945419;28;20055;-83
2023/07/17 03:49:24;;;;;;;0.60;0.40;;;;;;;28.34;32.61;100763.94;4940569;28;20698;-79
2023/07/17 03:51:53;;;;;;;1.48;0.50;;;;;;;28.07;33.71;100770.50;4951931;28;20054;-82
2023/07/17 03:54:21;;;;;;;0.50;0.43;;;;;;;27.89;33.46;100767.66;4945613;28;20078;-80
2023/07/17 03:56:50;;;;;;;1.65;0.40;;;;;;;27.70;33.78;100770.22;4945708;28;20549;-82
2023/07/17 03:59:24;;;;;;;2.05;0.60;;;;;;;27.57;33.69;100788.44;4944059;28;20090;-80
2023/07/17 04:01:53;;;;;;;2.95;0.57;;;;;;;27.43;33.70;100789.94;4946151;28;20047;-78
2023/07/17 04:04:25;;;;;;;1.33;0.40;;;;;;;27.29;34.60;100794.00;4940345;28;20040;-81
2023/07/17 04:06:53;;;;;;;0.50;0.47;;;;;;;27.20;34.46;100794.38;4941794;28;20056;-82
2023/07/17 04:09:25;;;;;;;0.73;0.40;;;;;;;27.10;34.43;100803.59;4940489;28;20048;-81
2023/07/17 04:11:53;;;;;;;0.52;0.50;;;;;;;26.95;34.24;100813.88;4947041;28;20047;-81
2023/07/17 04:14:23;;;;;;;1.77;0.47;;;;;;;26.79;35.02;100820.69;4948310;28;20055;-82
2023/07/17 04:16:52;;;;;;;1.17;0.45;;;;;;;26.66;35.03;100827.34;4950182;28;20047;-85
2023/07/17 04:19:21;;;;;;;0.88;0.50;;;;;;;26.55;35.66;100827.75;4950091;28;20059;-81
2023/07/17 04:21:50;;;;;;;0.50;0.50;;;;;;;26.43;34.73;100839.63;4948935;28;20059;-82
2023/07/17 04:24:18;;;;;;;0.80;0.40;;;;;;;26.30;34.68;100839.19;4948930;28;20078;-82
2023/07/17 04:26:47;;;;;;;0.82;0.50;;;;;;;26.16;35.42;100835.25;4948793;28;20093;-84
2023/07/17 04:29:16;;;;;;;0.60;0.30;;;;;;;26.08;35.73;100849.66;4945826;28;20051;-82
2023/07/17 04:31:49;;;;;;;1.30;0.57;;;;;;;25.97;35.10;100865.06;4951083;28;20515;-84
2023/07/17 04:34:18;;;;;;;0.73;0.43;;;;;;;25.85;34.94;100868.06;4952716;28;20055;-84
2023/07/17 04:36:46;;;;;;;0.45;0.40;;;;;;;25.74;35.85;100870.19;4952142;28;20047;-85
2023/07/17 04:39:15;;;;;;;1.40;0.73;;;;;;;25.66;36.03;100878.41;4952040;28;20176;-87
2023/07/17 04:41:43;;;;;;;1.48;0.45;;;;;;;25.57;36.24;100892.81;4950645;28;20047;-83
2023/07/17 04:44:14;;;;;;;0.70;0.50;;;;;;;25.48;35.69;100895.72;4933723;28;20051;-82
2023/07/17 04:46:43;;;;;;;0.43;0.40;;;;;;;25.42;36.15;100902.06;4947790;28;20058;-85
2023/07/17 04:49:13;;;;;;;0.73;0.45;;;;;;;25.32;35.88;100903.25;4949658;28;20487;-81
2023/07/17 04:51:41;;;;;;;0.60;0.40;;;;;;;25.23;36.38;100912.34;4951468;28;20544;-83
2023/07/17 04:54:10;;;;;;;1.10;0.60;;;;;;;25.20;36.54;100912.44;4950925;28;20154;-81
2023/07/17 04:56:39;;;;;;;0.82;0.40;;;;;;;25.13;36.33;100916.13;4950986;28;20063;-84
2023/07/17 04:59:07;;;;;;;1.80;0.40;;;;;;;25.08;36.10;100920.66;4949754;28;20139;-81
2023/07/17 05:01:37;;;;;;;1.45;0.57;;;;;;;25.01;36.46;100927.06;4951679;28;20516;-85
2023/07/17 05:04:06;;;;;;;1.08;0.60;;;;;;;24.91;36.82;100920.28;4951157;28;20055;-85
2023/07/17 05:06:38;;;;;;;3.03;0.60;;;;;;;24.81;36.65;100925.84;4956288;28;20043;-81
2023/07/17 05:09:07;;;;;;;0.60;0.40;;;;;;;24.74;37.33;100926.03;4961478;28;20043;-84
2023/07/17 05:11:36;;;;;;;0.85;0.40;;;;;;;24.67;37.20;100938.56;4959426;28;20158;-85
2023/07/17 05:14:04;;;;;;;2.35;0.60;;;;;;;24.60;36.95;100939.59;4958882;28;20051;-83
2023/07/17 05:16:33;;;;;;;0.45;0.30;;;;;;;24.50;37.06;100941.63;4963185;28;20062;-83
2023/07/17 05:19:04;;;;;;;0.45;0.43;;;;;;;24.42;37.53;100940.94;4956740;28;21196;-83
2023/07/17 05:21:34;;;;;;;0.88;0.50;;;;;;;24.31;36.97;100950.91;4953142;28;20711;-83
2023/07/17 05:24:04;;;;;;;0.38;0.38;;;;;;;24.18;37.29;100956.47;4949201;28;20050;-83
2023/07/17 05:26:33;;;;;;;0.50;0.40;;;;;;;24.09;37.49;100950.53;4949386;28;20106;-85
2023/07/17 05:29:01;;;;;;;0.57;0.40;;;;;;;24.02;37.99;100960.38;4942786;28;20059;-83
2023/07/17 05:31:30;;;;;;;0.60;0.50;;;;;;;23.96;37.72;100966.69;4949900;28;20047;-83
2023/07/17 05:33:58;;;;;;;0.70;0.35;;;;;;;23.90;38.47;100956.25;4951050;28;20527;-85
2023/07/17 05:36:27;;;;;;;1.02;0.50;;;;;;;23.84;37.74;100961.66;4950649;28;20469;-85
2023/07/17 05:38:55;;;;;;;0.55;0.52;;;;;;;23.81;38.46;100967.88;4948801;28;20115;-82
2023/07/17 05:41:26;;;;;;;2.20;0.40;;;;;;;23.78;38.22;100967.97;4952056;28;20059;-83
2023/07/17 05:43:54;;;;;;;0.68;0.30;;;;;;;23.73;38.37;100968.91;4952188;28;20051;-85
2023/07/17 05:46:23;;;;;;;6.47;0.52;;;;;;;23.67;37.99;100971.72;4948382;28;20051;-86
2023/07/17 05:48:51;;;;;;;1.05;0.50;;;;;;;23.60;37.78;100971.84;4949588;28;20390;-85
2023/07/17 05:51:20;;;;;;;1.23;0.50;;;;;;;23.51;38.32;100974.66;4949705;28;20257;-84
2023/07/17 05:53:48;;;;;;;0.35;0.30;;;;;;;23.43;38.59;100976.59;4952471;28;20051;-86
2023/07/17 05:56:17;;;;;;;0.77;0.40;;;;;;;23.39;39.37;100982.84;4951369;28;20055;-85
2023/07/17 05:58:55;;;;;;;0.75;0.50;;;;;;;23.31;39.74;100982.97;4951646;28;20171;-86
2023/07/17 06:01:23;;;;;;;1.58;0.40;;;;;;;23.26;40.49;100989.28;4947713;28;20524;-88
2023/07/17 06:03:54;;;;;;;1.05;0.40;;;;;;;23.16;39.91;100983.31;4954762;28;20044;-85
2023/07/17 06:06:23;;;;;;;0.32;0.32;;;;;;;23.12;39.63;100992.16;4949205;28;20143;-87
2023/07/17 06:08:52;;;;;;;0.73;0.40;;;;;;;23.07;39.94;100992.25;4949407;28;20070;-87
2023/07/17 06:11:20;;;;;;;0.80;0.50;;;;;;;22.93;39.78;100994.22;4949816;28;20047;-88
2023/07/17 06:13:50;;;;;;;0.50;0.40;;;;;;;22.80;40.27;100998.84;4950504;28;20059;-86
2023/07/17 06:16:22;;;;;;;0.55;0.40;;;;;;;22.72;40.24;101001.63;4952211;28;20051;-89
2023/07/17 06:18:51;;;;;;;0.55;0.40;;;;;;;22.65;40.48;101007.03;4951090;28;20581;-86
2023/07/17 06:21:19;;;;;;;0.98;0.50;;;;;;;22.63;40.36;101011.44;4954163;28;20069;-85
2023/07/17 06:23:49;;;;;;;0.30;0.30;;;;;;;22.59;40.42;101024.69;4950196;28;20139;-86
2023/07/17 06:26:18;;;;;;;1.02;0.35;;;;;;;22.54;41.14;101020.38;4954022;28;20082;-86
2023/07/17 06:28:47;;;;;;;1.10;0.50;;;;;;;22.50;41.10;101029.25;4948803;28;20410;-86
2023/07/17 06:31:18;;;;;;;0.50;0.40;;;;;;;22.43;41.35;101027.59;4952045;28;20075;-84
2023/07/17 06:33:46;;;;;;;2.40;0.60;;;;;;;22.22;41.88;101037.56;4957842;28;20078;-85
2023/07/17 06:36:16;;;;;;;0.45;0.40;;;;;;;22.06;42.89;101042.16;4955638;28;20981;-86
2023/07/17 06:38:47;;;;;;;0.52;0.35;;;;;;;21.92;43.64;101036.16;4947445;28;20074;-89
2023/07/17 06:41:15;;;;;;;0.52;0.43;;;;;;;21.85;45.10;101034.50;4951670;28;20083;-84
2023/07/17 06:43:44;;;;;;;0.68;0.50;;;;;;;21.78;45.33;101041.59;4948049;28;20047;-84
2023/07/17 06:46:13;;;;;;;0.63;0.50;;;;;;;21.60;46.54;101050.63;4949893;28;20069;-85
2023/07/17 06:48:46;;;;;;;1.35;0.80;;;;;;;21.47;46.48;101052.50;4957440;28;20054;-85
2023/07/17 06:51:14;;;;;;;1.27;0.52;;;;;;;21.34;47.79;101058.75;4949860;28;20047;-84
2023/07/17 06:53:43;;;;;;;1.63;0.52;;;;;;;21.17;48.29;101055.44;4948024;28;20043;-84
2023/07/17 06:56:11;;;;;;;0.98;0.52;;;;;;;21.06;48.22;101059.00;4946184;28;20062;-87
2023/07/17 06:58:48;;;;;;;1.55;0.73;;;;;;;20.96;48.81;101051.22;4951378;28;20051;-87
2023/07/17 07:01:16;;;;;;;1.25;0.77;;;;;;;20.94;49.74;101064.41;4949500;28;20053;-84
2023/07/17 07:03:46;;;;;;;1.15;0.70;;;;;;;20.85;49.35;101064.47;4948816;28;20055;-87
2023/07/17 07:06:15;;;;;;;2.05;0.73;;;;;;;20.84;49.58;101068.84;4950242;28;20063;-88
2023/07/17 07:08:46;;;;;;;1.83;0.70;;;;;;;20.76;50.61;101070.66;4947863;28;20079;-84
2023/07/17 07:11:14;;;;;;;1.13;0.40;;;;;;;20.79;50.70;101075.03;4951010;28;20234;-87
2023/07/17 07:13:44;;;;;;;0.98;0.60;;;;;;;20.74;50.42;101074.19;4947552;28;20059;-86
2023/07/17 07:16:13;;;;;;;0.85;0.50;;;;;;;20.73;50.17;101083.84;4947080;28;20082;-85
2023/07/17 07:18:41;;;;;;;0.60;0.60;;;;;;;20.69;50.88;101090.88;4952122;28;20055;-83
2023/07/17 07:21:12;;;;;;;2.55;0.73;;;;;;;20.57;51.97;101093.59;4948635;28;20051;-82
2023/07/17 07:23:40;;;;;;;2.25;0.52;;;;;;;20.41;52.04;101092.78;4947068;28;20361;-85
2023/07/17 07:26:09;;;;;;;1.83;1.02;;;;;;;20.28;52.71;101105.09;4948173;28;20039;-84
2023/07/17 07:28:37;;;;;;;1.73;0.73;;;;;;;20.11;53.21;101106.91;4948202;28;20058;-85
2023/07/17 07:31:06;;;;;;;0.70;0.60;;;;;;;20.05;54.12;101112.22;4949419;28;20457;-84
2023/07/17 07:33:39;;;;;;;0.80;0.80;;;;;;;19.99;54.45;101122.75;4948438;28;20084;-83
2023/07/17 07:36:07;;;;;;;2.15;0.68;;;;;;;19.91;54.35;101121.91;4949235;28;20052;-85
2023/07/17 07:38:38;;;;;;;0.88;0.68;;;;;;;19.90;55.09;101122.78;4952707;28;20051;-83
2023/07/17 07:41:06;;;;;;;0.60;0.52;;;;;;;19.76;54.83;101125.44;4957168;28;20050;-84
2023/07/17 07:43:35;;;;;;;1.95;0.68;;;;;;;19.68;55.89;101128.06;4956279;28;20504;-85
2023/07/17 07:46:03;;;;;;;0.80;0.70;;;;;;;19.68;56.35;101133.31;4955565;28;20417;-85
2023/07/17 07:48:32;;;;;;;1.77;0.65;;;;;;;19.69;55.98;101129.81;4958744;28;20043;-85
2023/07/17 07:51:00;;;;;;;0.68;0.50;;;;;;;19.64;56.33;101131.56;4961777;28;20493;-83
2023/07/17 07:53:29;;;;;;;1.25;0.80;;;;;;;19.55;57.01;101126.31;4952447;28;20066;-85
2023/07/17 07:56:00;;;;;;;1.10;0.77;;;;;;;19.55;57.01;101136.81;4959096;28;20512;-85
2023/07/17 07:58:29;;;;;;;5.13;1.03;;;;;;;19.54;57.14;101145.56;4964936;28;20031;-84
2023/07/17 08:00:57;;;;;;;1.35;0.77;;;;;;;19.44;56.86;101142.94;4970926;28;20309;-86
2023/07/17 08:03:26;;;;;;;0.90;0.70;;;;;;;19.37;58.03;101149.06;4958814;28;20054;-86
2023/07/17 08:05:56;;;;;;;0.68;0.50;;;;;;;19.34;57.80;101151.72;4959589;28;20063;-85
2023/07/17 08:08:25;;;;;;;1.80;0.80;;;;;;;19.32;58.54;101160.47;4963367;28;20054;-85
2023/07/17 08:10:54;;;;;;;1.33;0.68;;;;;;;19.22;58.16;101162.22;4954155;28;20085;-85
2023/07/17 08:13:24;;;;;;;0.95;0.80;;;;;;;19.21;58.16;101165.69;4958672;28;20817;-85
2023/07/17 08:15:53;;;;;;;1.67;0.77;;;;;;;19.22;57.99;101170.09;4954022;28;20051;-85
2023/07/17 08:18:21;;;;;;;1.10;0.68;;;;;;;19.21;58.61;101173.56;4955744;28;20505;-85
2023/07/17 08:20:50;;;;;;;1.27;0.80;;;;;;;19.18;58.12;101173.56;4935057;29;20211;-84
2023/07/17 08:23:26;;;;;;;1.05;0.70;;;;;;;19.17;58.49;101171.81;4933065;29;20055;-85
2023/07/17 08:25:55;;;;;;;3.50;0.73;;;;;;;19.13;58.48;101170.94;4934688;29;20048;-84
2023/07/17 08:28:34;;;;;;;1.30;0.73;;;;;;;19.07;59.14;101175.31;4932853;29;20075;-85
2023/07/17 08:31:03;;;;;;;0.90;0.60;;;;;;;18.99;58.76;101173.56;4934671;29;20047;-82
2023/07/17 08:33:32;;;;;;;0.80;0.70;;;;;;;18.95;58.84;101177.03;4934400;29;20115;-83
2023/07/17 08:36:00;;;;;;;4.72;0.77;;;;;;;18.93;58.93;101184.03;4933664;29;20514;-84
2023/07/17 08:38:29;;;;;;;0.65;0.60;;;;;;;18.92;58.66;101176.16;4937997;29;20062;-84
2023/07/17 08:40:57;;;;;;;0.93;0.63;;;;;;;18.89;58.02;101179.63;4932632;29;20061;-82
2023/07/17 08:43:29;;;;;;;2.70;0.55;;;;;;;18.87;58.09;101189.25;4931970;29;20051;-85
2023/07/17 08:45:59;;;;;;;0.77;0.50;;;;;;;18.84;59.03;101190.13;4929366;29;20063;-85
2023/07/17 08:48:28;;;;;;;1.45;0.73;;;;;;;18.82;59.77;101198.84;4933923;29;20526;-84
2023/07/17 08:51:04;;;;;;;0.93;0.63;;;;;;;18.80;59.81;101192.72;4933524;29;20048;-85
2023/07/17 08:53:36;;;;;;;0.70;0.40;;;;;;;18.80;59.89;101188.34;4936023;29;20059;-85
2023/07/17 08:56:05;;;;;;;0.55;0.30;;;;;;;18.78;59.27;101189.22;4935339;29;20043;-86
2023/07/17 08:58:37;;;;;;;0.98;0.70;;;;;;;18.81;59.38;101194.50;4935638;29;20095;-85
2023/07/17 09:01:06;;;;;;;0.70;0.40;;;;;;;18.76;59.86;101189.22;4935250;29;20058;-86
2023/07/17 09:03:36;;;;;;;1.15;0.80;;;;;;;18.63;59.84;101206.63;4935409;29;20056;-86
2023/07/17 09:06:06;;;;;;;1.63;0.70;;;;;;;18.42;61.69;101185.59;4935945;29;20130;-85
2023/07/17 09:08:35;;;;;;;1.88;0.95;;;;;;;18.32;63.01;101197.75;4933327;29;20068;-87
2023/07/17 09:11:04;;;;;;;1.42;0.80;;;;;;;18.21;63.79;101184.63;4936699;29;20047;-85
2023/07/17 09:13:41;;;;;;;1.45;0.60;;;;;;;18.06;64.87;101195.00;4932137;29;20044;-87
2023/07/17 09:16:20;;;;;;;0.90;0.80;;;;;;;17.94;64.93;101190.59;4935332;29;20051;-84
2023/07/17 09:18:50;;;;;;;0.88;0.60;;;;;;;17.86;64.36;101188.78;4935809;28;20063;-85
2023/07/17 09:21:19;;;;;;;1.17;0.90;;;;;;;17.78;65.31;101192.19;4950530;28;20493;-85
2023/07/17 09:23:49;;;;;;;1.23;0.77;;;;;;;17.83;64.24;101196.63;4951490;28;20087;-87
2023/07/17 09:26:18;;;;;;;2.58;0.90;;;;;;;17.87;64.56;101194.03;4952416;28;20521;-86
2023/07/17 09:28:50;;;;;;;2.67;0.63;;;;;;;17.91;64.57;101187.97;4951172;28;20102;-84
2023/07/17 09:31:25;;;;;;;0.55;0.50;;;;;;;17.96;64.63;101190.59;4949001;28;20552;-86
2023/07/17 09:33:54;;;;;;;1.35;0.82;;;;;;;17.97;63.65;101195.81;4954351;28;20062;-86
2023/07/17 09:36:23;;;;;;;2.08;1.00;;;;;;;17.87;64.44;101204.50;4950143;28;20123;-86
2023/07/17 09:38:53;;;;;;;1.13;0.90;;;;;;;17.81;63.99;101207.06;4951259;28;20142;-87
2023/07/17 09:41:23;;;;;;;3.15;1.02;;;;;;;17.79;64.42;101214.00;4949063;28;20052;-85
2023/07/17 09:44:03;;;;;;;0.82;0.60;;;;;;;17.75;65.33;101210.50;4950682;28;20047;-83
2023/07/17 09:46:33;;;;;;;2.95;0.93;;;;;;;17.72;66.82;101213.06;4950459;28;20405;-85
2023/07/17 09:49:03;;;;;;;1.73;0.63;;;;;;;17.73;66.12;101220.09;4947238;28;20056;-84
2023/07/17 09:51:33;;;;;;;0.93;0.65;;;;;;;17.72;65.84;101218.31;4949862;28;20519;-84
2023/07/17 09:54:03;;;;;;;1.30;1.10;;;;;;;17.68;67.29;101213.03;4949908;28;20074;-84
2023/07/17 09:56:32;;;;;;;0.95;0.65;;;;;;;17.65;67.94;101211.28;4943485;28;22094;-84
2023/07/17 09:59:09;;;;;;;1.02;0.70;;;;;;;17.59;69.16;101211.22;4953678;28;20063;-85
2023/07/17 10:01:39;;;;;;;2.90;1.00;;;;;;;17.48;69.96;101218.13;4947545;28;20604;-85
2023/07/17 10:04:10;;;;;;;1.38;0.98;;;;;;;17.35;69.99;101207.53;4948101;28;20058;-85
2023/07/17 10:06:42;;;;;;;1.65;0.93;;;;;;;17.28;69.99;101205.75;4944037;28;20113;-84
2023/07/17 10:09:14;;;;;;;1.20;0.90;;;;;;;17.23;70.87;101209.19;4947411;28;20496;-86
2023/07/17 10:11:43;;;;;;;1.27;0.93;;;;;;;17.21;70.79;101219.63;4947265;28;20548;-86
2023/07/17 10:14:14;;;;;;;0.98;0.88;;;;;;;17.20;69.40;101223.09;4951386;28;20051;-82
2023/07/17 10:16:43;;;;;;;0.80;0.50;;;;;;;17.19;69.87;101233.56;4954582;28;20589;-84
2023/07/17 10:19:12;;;;;;;0.85;0.75;;;;;;;17.17;69.21;101238.75;4958124;28;20097;-84
2023/07/17 10:21:56;;;;;;;1.48;0.90;;;;;;;17.20;68.77;101235.28;4961736;28;20094;-84
2023/07/17 10:24:25;;;;;;;1.13;0.90;;;;;;;17.16;69.62;101240.50;4958405;28;20053;-85
2023/07/17 10:26:54;;;;;;;1.42;0.90;;;;;;;17.07;71.21;101236.94;4954115;28;20055;-85
2023/07/17 10:29:34;;;;;;;1.25;0.93;;;;;;;16.93;72.46;101237.66;4953353;28;20043;-83
2023/07/17 10:32:11;;;;;;;1.80;0.93;;;;;;;16.83;72.79;101235.78;4949174;28;20047;-86
2023/07/17 10:34:54;;;;;;;1.20;0.80;;;;;;;16.81;72.39;101244.47;4950653;28;20051;-85
2023/07/17 10:37:42;;;;;;;1.85;0.82;;;;;;;16.76;72.74;101229.56;4953430;28;20047;-84
2023/07/17 10:40:27;;;;;;;1.45;0.90;;;;;;;16.88;71.84;101235.81;4951229;28;20495;-84
2023/07/17 10:42:56;;;;;;;0.98;0.80;;;;;;;16.90;72.01;101223.66;4949784;28;20138;-85
2023/07/17 10:45:36;;;;;;;1.42;1.02;;;;;;;16.91;72.02;101236.75;4948428;28;20054;-85
2023/07/17 10:48:06;;;;;;;1.98;0.90;;;;;;;16.90;71.83;101237.59;4951339;28;20050;-85
2023/07/17 10:50:35;;;;;;;1.83;1.00;;;;;;;16.88;71.70;101226.28;4948884;28;20080;-86
2023/07/17 10:53:04;;;;;;;1.25;0.70;;;;;;;16.88;71.57;101231.50;4947513;28;20050;-85
2023/07/17 10:55:33;;;;;;;2.45;0.82;;;;;;;16.81;72.54;101239.22;4951320;28;20055;-85
2023/07/17 10:58:03;;;;;;;1.13;0.80;;;;;;;16.73;71.79;101236.50;4943289;28;20543;-87
2023/07/17 11:00:35;;;;;;;1.50;0.70;;;;;;;16.70;72.48;101234.75;4946045;28;20448;-87
2023/07/17 11:03:04;;;;;;;1.77;1.07;;;;;;;16.68;72.19;101223.38;4949809;28;20078;-85
2023/07/17 11:05:37;;;;;;;1.02;0.90;;;;;;;16.69;72.57;101230.34;4952467;28;20058;-86
2023/07/17 11:08:07;;;;;;;1.15;1.00;;;;;;;16.67;72.93;101237.28;4951665;28;20500;-86
2023/07/17 11:10:37;;;;;;;0.95;0.77;;;;;;;16.67;72.76;101242.53;4949071;28;20051;-85
2023/07/17 11:13:06;;;;;;;1.85;1.00;;;;;;;16.67;72.54;101246.88;4949345;28;20047;-86
2023/07/17 11:15:37;;;;;;;2.88;1.10;;;;;;;16.67;72.32;101252.09;4947617;28;20051;-86
2023/07/17 11:18:08;;;;;;;1.30;0.80;;;;;;;16.66;73.23;101247.75;4951399;28;20051;-84
2023/07/17 11:20:36;;;;;;;1.23;0.90;;;;;;;16.64;73.39;101252.06;4952531;28;20059;-85
2023/07/17 11:23:05;;;;;;;1.23;0.70;;;;;;;16.60;73.17;101255.50;4941143;28;20170;-84
2023/07/17 11:25:38;;;;;;;1.65;0.80;;;;;;;16.56;74.07;101259.81;4948956;28;20561;-85
2023/07/17 11:28:07;;;;;;;0.95;0.70;;;;;;;16.53;74.07;101255.41;4951653;28;20055;-86
2023/07/17 11:30:37;;;;;;;1.98;1.10;;;;;;;16.51;73.84;101267.56;4947875;28;20054;-83
2023/07/17 11:33:07;;;;;;;2.35;1.40;;;;;;;16.47;75.60;101268.41;4946508;28;20083;-81
2023/07/17 11:35:41;;;;;;;1.02;0.70;;;;;;;16.37;75.25;101263.03;4947343;28;20054;-83
2023/07/17 11:38:10;;;;;;;0.95;0.70;;;;;;;16.27;75.42;101269.88;4948794;28;20063;-82